Terminal Aerodrome Forecast
Issued by NWS Sterling, VA

Current Version | Previous Version | Graphics & Text | Print | Product List | Glossary Off
Versions: 1 2 3 4 5 6 7 8 9 10 11 12 13 14 15 16 17 18 19 20 21 22 23 24

000
FTUS41 KLWX 242335
TAFIAD
TAF
KIAD 242335Z 2500/2606 04007KT 4SM -RA OVC030
     FM250100 06010KT 5SM -RA OVC015
     FM250300 06009KT 5SM -RA OVC008
     FM250700 05009KT 2SM -RA OVC003
     FM260000 03009KT 1 1/2SM -RA OVC008
     FM260300 02007KT 4SM -RA OVC010=

USA.gov is the U.S. government's official web portal to all federal, state and local government web resources and services.